Terminal Aerodrome Forecast
Issued by NWS

Home | Current Version | Previous Version | Text Only | Print | Product List | Glossary On
Versions: 1 2 3 4 5 6 7 8 9 10 11 12 13 14 15 16 17 18 19 20 21 22 23 24 25 26 27 28 29 30 31 32 33 34 35 36 37 38 39 40 41 42 43 44 45 46 47 48 49 50
000
FTUS43 KLOT 270300 AAB
TAFGYY
TAF AMD
KGYY 270300Z 2703/2724 18007KT P6SM OVC026
     FM270400 18008KT P6SM OVC045
     FM270600 19008KT P6SM OVC020
     FM270900 18008KT 3SM -DZRA BR BKN008 OVC015
     FM271600 23014G22KT P6SM SCT008 OVC015=

USA.gov is the U.S. government's official web portal to all federal, state and local government web resources and services.